Hovedside
METAR-TAF:

METAR-TAF

Lufthavner :

Tarawa, Kiribati

breddegrad: 01-21N, lengdegrad: 172-55E, høyde over havet: 2 m

Gjeldene værobservasjon

Denne rapporten ble laget for 29 minutter siden, klokken 11:00 UTC
Vind 4 kt fra Øst-sørøst
Temperatur 28°C
Luftfuktighet 84%
Trykk 1009 hPa
Sikt 10 km eller mer
Få skyer i en høyde av 1900 ft

METAR: NGTA 231100Z 12004KT 9999 FEW019 28/25 Q1009

Tid: 01:29 (11:29 UTC)

Varsel

Denne rapporten ble laget for 6 timer og 22 minutter siden, klokken 05:07 UTC
Varsel gyldig fra 23. klokken 06 UTC til 24. klokken 06 UTC
Vind 7 kt fra Øst-sørøst
Sikt 10 km eller mer
Få skyer i en høyde av 2000 ft
Sannsynlighet 30% :
Midlertidig
fra 23. klokken 18 UTC til 24. klokken 06 UTC
Sikt: 7000 m
Brutte skyer i en høyde av 1600 ft
regnbyger,

TAF: NGTA 230507Z 2306/2406 11007KT 9999 FEW020 PROB30 TEMPO 2318/2406 7000 SHRA BKN016

Værobservasjoner og værvarsel for over 4000 flyplasser (METAR- og TAF-rapporter).

Tilgjengelige stasjoner er representert av de røde og gule prikkene på kartet.

Hold musepekeren over prikken for å se navnet på stasjonen.

Klikk så for å se værobservasjoner og -varsler.

For å forandre kartet kan du klikke på den grønne knappen med svart kryss for å zoome inn, på den grønne knappen med strek for å zoome ut, eller på de grønne pilene for å se tilstøtende kart.


METAR-TAF: